sensor_id;sensor_type;location;lat;lon;timestamp;pressure;altitude;pressure_sealevel;temperature;humidity
62847;BME280;49477;35.676;139.586;2023-06-04T00:00:47;100397.41;;;27.43;33.48
62847;BME280;49477;35.676;139.586;2023-06-04T00:03:17;100407.62;;;27.19;33.91
62847;BME280;49477;35.676;139.586;2023-06-04T00:05:46;100408.03;;;27.31;33.93
62847;BME280;49477;35.676;139.586;2023-06-04T00:08:16;100395.33;;;27.39;33.74
62847;BME280;49477;35.676;139.586;2023-06-04T00:10:45;100399.28;;;27.31;33.91
62847;BME280;49477;35.676;139.586;2023-06-04T00:13:15;100396.52;;;27.12;33.82
62847;BME280;49477;35.676;139.586;2023-06-04T00:15:44;100394.51;;;27.14;33.70
62847;BME280;49477;35.676;139.586;2023-06-04T00:18:14;100403.06;;;27.37;33.64
62847;BME280;49477;35.676;139.586;2023-06-04T00:20:43;100408.20;;;27.62;33.89
62847;BME280;49477;35.676;139.586;2023-06-04T00:23:13;100410.14;;;27.71;33.97
62847;BME280;49477;35.676;139.586;2023-06-04T00:25:42;100402.15;;;27.73;34.02
62847;BME280;49477;35.676;139.586;2023-06-04T00:28:11;100386.69;;;27.59;34.01
62847;BME280;49477;35.676;139.586;2023-06-04T00:30:41;100389.08;;;27.21;33.91
62847;BME280;49477;35.676;139.586;2023-06-04T00:33:10;100388.74;;;27.61;33.56
62847;BME280;49477;35.676;139.586;2023-06-04T00:35:40;100384.27;;;27.84;33.56
62847;BME280;49477;35.676;139.586;2023-06-04T00:38:09;100402.90;;;27.90;33.56
62847;BME280;49477;35.676;139.586;2023-06-04T00:40:39;100400.19;;;27.35;33.84
62847;BME280;49477;35.676;139.586;2023-06-04T00:43:08;100403.59;;;27.71;33.64
62847;BME280;49477;35.676;139.586;2023-06-04T00:45:38;100397.10;;;27.39;33.48
62847;BME280;49477;35.676;139.586;2023-06-04T00:48:08;100397.33;;;27.70;33.69
62847;BME280;49477;35.676;139.586;2023-06-04T00:50:37;100392.36;;;27.80;33.52
62847;BME280;49477;35.676;139.586;2023-06-04T00:53:08;100393.51;;;27.88;33.68
62847;BME280;49477;35.676;139.586;2023-06-04T00:55:38;100384.13;;;27.95;33.59
62847;BME280;49477;35.676;139.586;2023-06-04T00:58:08;100383.79;;;27.92;33.77
62847;BME280;49477;35.676;139.586;2023-06-04T01:00:37;100376.91;;;27.94;33.54
62847;BME280;49477;35.676;139.586;2023-06-04T01:03:13;100384.44;;;28.00;33.47
62847;BME280;49477;35.676;139.586;2023-06-04T01:05:47;100381.11;;;27.53;34.30
62847;BME280;49477;35.676;139.586;2023-06-04T01:08:18;100381.77;;;28.12;33.91
62847;BME280;49477;35.676;139.586;2023-06-04T01:10:52;100382.52;;;27.81;33.69
62847;BME280;49477;35.676;139.586;2023-06-04T01:13:21;100371.57;;;27.61;34.20
62847;BME280;49477;35.676;139.586;2023-06-04T01:15:51;100371.16;;;28.22;34.31
62847;BME280;49477;35.676;139.586;2023-06-04T01:18:27;100371.04;;;27.81;34.17
62847;BME280;49477;35.676;139.586;2023-06-04T01:20:59;100376.33;;;28.44;34.09
62847;BME280;49477;35.676;139.586;2023-06-04T01:23:36;100372.79;;;27.90;34.50
62847;BME280;49477;35.676;139.586;2023-06-04T01:26:08;100367.04;;;28.07;34.46
62847;BME280;49477;35.676;139.586;2023-06-04T01:28:38;100368.13;;;28.16;34.64
62847;BME280;49477;35.676;139.586;2023-06-04T01:31:08;100372.00;;;28.52;34.05
62847;BME280;49477;35.676;139.586;2023-06-04T01:33:37;100385.39;;;27.89;34.62
62847;BME280;49477;35.676;139.586;2023-06-04T01:36:07;100377.20;;;27.76;34.79
62847;BME280;49477;35.676;139.586;2023-06-04T01:38:36;100374.80;;;28.39;34.72
62847;BME280;49477;35.676;139.586;2023-06-04T01:41:06;100371.52;;;27.86;34.65
62847;BME280;49477;35.676;139.586;2023-06-04T01:43:35;100362.64;;;28.30;34.60
62847;BME280;49477;35.676;139.586;2023-06-04T01:46:04;100357.02;;;28.04;34.63
62847;BME280;49477;35.676;139.586;2023-06-04T01:48:33;100357.07;;;28.30;34.37
62847;BME280;49477;35.676;139.586;2023-06-04T01:51:03;100354.10;;;27.91;34.22
62847;BME280;49477;35.676;139.586;2023-06-04T01:53:32;100353.51;;;28.38;34.06
62847;BME280;49477;35.676;139.586;2023-06-04T01:56:02;100348.46;;;28.42;33.88
62847;BME280;49477;35.676;139.586;2023-06-04T01:58:31;100351.27;;;28.46;33.93
62847;BME280;49477;35.676;139.586;2023-06-04T02:01:01;100344.48;;;28.17;34.12
62847;BME280;49477;35.676;139.586;2023-06-04T02:03:30;100334.36;;;28.54;34.05
62847;BME280;49477;35.676;139.586;2023-06-04T02:06:00;100335.41;;;28.39;34.17
62847;BME280;49477;35.676;139.586;2023-06-04T02:08:29;100337.92;;;28.09;34.08
62847;BME280;49477;35.676;139.586;2023-06-04T02:10:59;100341.41;;;28.61;33.73
62847;BME280;49477;35.676;139.586;2023-06-04T02:13:28;100341.90;;;27.77;33.63
62847;BME280;49477;35.676;139.586;2023-06-04T02:15:58;100336.50;;;28.55;33.26
62847;BME280;49477;35.676;139.586;2023-06-04T02:18:27;100330.34;;;28.34;32.91
62847;BME280;49477;35.676;139.586;2023-06-04T02:20:58;100324.82;;;28.37;32.73
62847;BME280;49477;35.676;139.586;2023-06-04T02:23:27;100322.41;;;28.27;32.02
62847;BME280;49477;35.676;139.586;2023-06-04T02:25:57;100323.41;;;29.14;32.12
62847;BME280;49477;35.676;139.586;2023-06-04T02:28:27;100317.22;;;28.64;31.83
62847;BME280;49477;35.676;139.586;2023-06-04T02:30:56;100316.80;;;28.62;32.02
62847;BME280;49477;35.676;139.586;2023-06-04T02:33:26;100311.23;;;28.41;32.51
62847;BME280;49477;35.676;139.586;2023-06-04T02:35:55;100311.86;;;28.94;32.26
62847;BME280;49477;35.676;139.586;2023-06-04T02:38:25;100312.40;;;28.83;32.37
62847;BME280;49477;35.676;139.586;2023-06-04T02:40:54;100305.38;;;29.01;32.73
62847;BME280;49477;35.676;139.586;2023-06-04T02:43:23;100300.61;;;28.89;33.45
62847;BME280;49477;35.676;139.586;2023-06-04T02:45:53;100297.53;;;28.56;34.01
62847;BME280;49477;35.676;139.586;2023-06-04T02:48:22;100296.57;;;28.39;33.60
62847;BME280;49477;35.676;139.586;2023-06-04T02:50:52;100298.26;;;28.96;33.43
62847;BME280;49477;35.676;139.586;2023-06-04T02:53:21;100290.08;;;28.69;33.40
62847;BME280;49477;35.676;139.586;2023-06-04T02:55:50;100290.52;;;28.98;33.23
62847;BME280;49477;35.676;139.586;2023-06-04T02:58:19;100281.77;;;28.67;33.11
62847;BME280;49477;35.676;139.586;2023-06-04T03:00:49;100285.35;;;29.01;33.20
62847;BME280;49477;35.676;139.586;2023-06-04T03:03:19;100278.61;;;28.94;32.71
62847;BME280;49477;35.676;139.586;2023-06-04T03:05:48;100278.74;;;29.28;32.77
62847;BME280;49477;35.676;139.586;2023-06-04T03:08:17;100260.78;;;29.11;32.66
62847;BME280;49477;35.676;139.586;2023-06-04T03:10:47;100257.76;;;29.39;32.69
62847;BME280;49477;35.676;139.586;2023-06-04T03:13:16;100258.98;;;29.36;32.62
62847;BME280;49477;35.676;139.586;2023-06-04T03:15:45;100262.99;;;28.67;33.01
62847;BME280;49477;35.676;139.586;2023-06-04T03:18:15;100257.04;;;28.92;32.95
62847;BME280;49477;35.676;139.586;2023-06-04T03:20:45;100256.73;;;29.59;32.73
62847;BME280;49477;35.676;139.586;2023-06-04T03:23:14;100245.94;;;29.44;32.60
62847;BME280;49477;35.676;139.586;2023-06-04T03:25:43;100253.42;;;29.42;32.41
62847;BME280;49477;35.676;139.586;2023-06-04T03:28:13;100248.34;;;29.72;32.65
62847;BME280;49477;35.676;139.586;2023-06-04T03:30:42;100244.39;;;29.65;32.82
62847;BME280;49477;35.676;139.586;2023-06-04T03:33:12;100246.37;;;29.87;33.06
62847;BME280;49477;35.676;139.586;2023-06-04T03:35:42;100248.38;;;29.48;33.33
62847;BME280;49477;35.676;139.586;2023-06-04T03:38:11;100247.63;;;29.80;33.17
62847;BME280;49477;35.676;139.586;2023-06-04T03:40:40;100248.47;;;29.66;33.03
62847;BME280;49477;35.676;139.586;2023-06-04T03:43:10;100246.71;;;29.79;33.44
62847;BME280;49477;35.676;139.586;2023-06-04T03:45:39;100242.87;;;30.24;33.18
62847;BME280;49477;35.676;139.586;2023-06-04T03:48:09;100241.12;;;29.80;33.34
62847;BME280;49477;35.676;139.586;2023-06-04T03:50:38;100237.07;;;29.99;33.51
62847;BME280;49477;35.676;139.586;2023-06-04T03:53:08;100225.58;;;29.82;33.38
62847;BME280;49477;35.676;139.586;2023-06-04T03:55:37;100222.10;;;29.89;33.31
62847;BME280;49477;35.676;139.586;2023-06-04T03:58:07;100220.00;;;29.67;33.51
62847;BME280;49477;35.676;139.586;2023-06-04T04:00:36;100223.02;;;30.32;33.14
62847;BME280;49477;35.676;139.586;2023-06-04T04:03:06;100213.61;;;30.06;33.14
62847;BME280;49477;35.676;139.586;2023-06-04T04:05:35;100227.89;;;30.02;32.97
62847;BME280;49477;35.676;139.586;2023-06-04T04:08:05;100216.22;;;29.90;33.09
62847;BME280;49477;35.676;139.586;2023-06-04T04:10:34;100219.35;;;29.89;33.04
62847;BME280;49477;35.676;139.586;2023-06-04T04:13:03;100214.33;;;29.83;33.13
62847;BME280;49477;35.676;139.586;2023-06-04T04:15:33;100197.17;;;30.30;32.55
62847;BME280;49477;35.676;139.586;2023-06-04T04:18:03;100188.27;;;30.33;32.43
62847;BME280;49477;35.676;139.586;2023-06-04T04:20:32;100191.08;;;30.32;32.37
62847;BME280;49477;35.676;139.586;2023-06-04T04:23:01;100187.55;;;30.18;32.40
62847;BME280;49477;35.676;139.586;2023-06-04T04:25:31;100188.66;;;29.72;32.11
62847;BME280;49477;35.676;139.586;2023-06-04T04:28:00;100184.14;;;30.15;32.00
62847;BME280;49477;35.676;139.586;2023-06-04T04:30:29;100169.88;;;30.20;31.52
62847;BME280;49477;35.676;139.586;2023-06-04T04:32:59;100180.91;;;29.96;31.57
62847;BME280;49477;35.676;139.586;2023-06-04T04:35:28;100171.18;;;30.25;31.40
62847;BME280;49477;35.676;139.586;2023-06-04T04:37:58;100171.18;;;30.11;31.47
62847;BME280;49477;35.676;139.586;2023-06-04T04:40:27;100179.75;;;29.96;30.82
62847;BME280;49477;35.676;139.586;2023-06-04T04:42:57;100176.15;;;30.43;31.14
62847;BME280;49477;35.676;139.586;2023-06-04T04:45:27;100176.63;;;29.96;30.57
62847;BME280;49477;35.676;139.586;2023-06-04T04:47:57;100173.83;;;30.50;30.82
62847;BME280;49477;35.676;139.586;2023-06-04T04:50:26;100174.01;;;30.45;30.43
62847;BME280;49477;35.676;139.586;2023-06-04T04:52:55;100169.80;;;30.15;30.30
62847;BME280;49477;35.676;139.586;2023-06-04T04:55:24;100169.79;;;30.35;30.51
62847;BME280;49477;35.676;139.586;2023-06-04T04:57:54;100172.99;;;30.17;30.42
62847;BME280;49477;35.676;139.586;2023-06-04T05:00:24;100162.30;;;30.48;30.56
62847;BME280;49477;35.676;139.586;2023-06-04T05:02:53;100164.01;;;30.44;30.86
62847;BME280;49477;35.676;139.586;2023-06-04T05:05:23;100162.21;;;30.39;30.66
62847;BME280;49477;35.676;139.586;2023-06-04T05:07:52;100163.12;;;30.94;30.93
62847;BME280;49477;35.676;139.586;2023-06-04T05:10:21;100165.22;;;30.04;31.12
62847;BME280;49477;35.676;139.586;2023-06-04T05:12:55;100163.23;;;30.45;30.72
62847;BME280;49477;35.676;139.586;2023-06-04T05:15:25;100153.10;;;30.21;31.08
62847;BME280;49477;35.676;139.586;2023-06-04T05:17:54;100150.83;;;30.56;30.55
62847;BME280;49477;35.676;139.586;2023-06-04T05:20:23;100146.81;;;30.29;30.63
62847;BME280;49477;35.676;139.586;2023-06-04T05:22:53;100139.32;;;30.78;30.58
62847;BME280;49477;35.676;139.586;2023-06-04T05:25:22;100143.31;;;30.15;30.63
62847;BME280;49477;35.676;139.586;2023-06-04T05:27:52;100151.39;;;30.69;30.67
62847;BME280;49477;35.676;139.586;2023-06-04T05:30:21;100155.37;;;30.61;30.25
62847;BME280;49477;35.676;139.586;2023-06-04T05:32:51;100159.32;;;30.67;30.17
62847;BME280;49477;35.676;139.586;2023-06-04T05:35:20;100166.21;;;30.03;30.15
62847;BME280;49477;35.676;139.586;2023-06-04T05:37:49;100164.09;;;30.60;30.48
62847;BME280;49477;35.676;139.586;2023-06-04T05:40:18;100151.14;;;30.16;30.77
62847;BME280;49477;35.676;139.586;2023-06-04T05:42:48;100136.02;;;31.00;30.63
62847;BME280;49477;35.676;139.586;2023-06-04T05:45:17;100144.38;;;30.47;30.22
62847;BME280;49477;35.676;139.586;2023-06-04T05:47:47;100152.96;;;30.26;30.51
62847;BME280;49477;35.676;139.586;2023-06-04T05:50:16;100141.64;;;30.78;30.59
62847;BME280;49477;35.676;139.586;2023-06-04T05:52:45;100153.51;;;30.42;30.40
62847;BME280;49477;35.676;139.586;2023-06-04T05:55:15;100158.87;;;30.57;30.38
62847;BME280;49477;35.676;139.586;2023-06-04T05:57:44;100157.33;;;30.63;30.58
62847;BME280;49477;35.676;139.586;2023-06-04T06:00:15;100148.62;;;30.73;30.70
62847;BME280;49477;35.676;139.586;2023-06-04T06:02:44;100139.29;;;31.03;30.81
62847;BME280;49477;35.676;139.586;2023-06-04T06:05:14;100144.58;;;30.25;30.82
62847;BME280;49477;35.676;139.586;2023-06-04T06:07:43;100151.55;;;30.42;30.83
62847;BME280;49477;35.676;139.586;2023-06-04T06:10:13;100155.65;;;30.98;30.76
62847;BME280;49477;35.676;139.586;2023-06-04T06:12:42;100147.14;;;30.95;30.73
62847;BME280;49477;35.676;139.586;2023-06-04T06:15:12;100151.15;;;30.80;30.32
62847;BME280;49477;35.676;139.586;2023-06-04T06:17:41;100157.78;;;30.54;30.44
62847;BME280;49477;35.676;139.586;2023-06-04T06:20:11;100163.32;;;30.47;29.80
62847;BME280;49477;35.676;139.586;2023-06-04T06:22:40;100153.19;;;30.14;30.21
62847;BME280;49477;35.676;139.586;2023-06-04T06:25:10;100154.17;;;30.42;30.47
62847;BME280;49477;35.676;139.586;2023-06-04T06:27:39;100158.86;;;29.97;30.29
62847;BME280;49477;35.676;139.586;2023-06-04T06:30:09;100154.03;;;30.56;30.53
62847;BME280;49477;35.676;139.586;2023-06-04T06:32:38;100153.84;;;30.01;30.50
62847;BME280;49477;35.676;139.586;2023-06-04T06:35:09;100158.15;;;30.75;30.61
62847;BME280;49477;35.676;139.586;2023-06-04T06:37:37;100159.45;;;30.35;30.93
62847;BME280;49477;35.676;139.586;2023-06-04T06:40:08;100161.94;;;30.50;30.96
62847;BME280;49477;35.676;139.586;2023-06-04T06:42:37;100168.76;;;30.22;31.10
62847;BME280;49477;35.676;139.586;2023-06-04T06:45:08;100171.98;;;30.82;31.09
62847;BME280;49477;35.676;139.586;2023-06-04T06:47:37;100177.22;;;30.39;31.27
62847;BME280;49477;35.676;139.586;2023-06-04T06:50:08;100169.18;;;30.63;31.28
62847;BME280;49477;35.676;139.586;2023-06-04T06:52:37;100175.35;;;30.33;31.68
62847;BME280;49477;35.676;139.586;2023-06-04T06:55:07;100181.03;;;30.34;31.68
62847;BME280;49477;35.676;139.586;2023-06-04T06:57:36;100181.36;;;30.17;31.95
62847;BME280;49477;35.676;139.586;2023-06-04T07:00:07;100182.31;;;30.47;32.00
62847;BME280;49477;35.676;139.586;2023-06-04T07:02:37;100187.22;;;30.11;32.13
62847;BME280;49477;35.676;139.586;2023-06-04T07:05:07;100185.14;;;30.46;32.04
62847;BME280;49477;35.676;139.586;2023-06-04T07:07:36;100180.91;;;29.95;32.03
62847;BME280;49477;35.676;139.586;2023-06-04T07:10:06;100183.94;;;30.19;32.42
62847;BME280;49477;35.676;139.586;2023-06-04T07:12:35;100176.64;;;29.98;32.43
62847;BME280;49477;35.676;139.586;2023-06-04T07:15:06;100184.34;;;30.18;32.50
62847;BME280;49477;35.676;139.586;2023-06-04T07:17:35;100188.81;;;30.26;32.28
62847;BME280;49477;35.676;139.586;2023-06-04T07:20:05;100193.89;;;30.14;32.62
62847;BME280;49477;35.676;139.586;2023-06-04T07:22:35;100182.97;;;30.07;32.64
62847;BME280;49477;35.676;139.586;2023-06-04T07:25:05;100173.06;;;29.97;32.77
62847;BME280;49477;35.676;139.586;2023-06-04T07:27:35;100173.43;;;29.93;32.81
62847;BME280;49477;35.676;139.586;2023-06-04T07:30:05;100175.61;;;30.05;33.13
62847;BME280;49477;35.676;139.586;2023-06-04T07:32:35;100173.38;;;30.07;32.89
62847;BME280;49477;35.676;139.586;2023-06-04T07:35:04;100173.54;;;29.86;33.02
62847;BME280;49477;35.676;139.586;2023-06-04T07:37:34;100170.85;;;29.85;32.91
62847;BME280;49477;35.676;139.586;2023-06-04T07:40:04;100154.94;;;29.98;32.95
62847;BME280;49477;35.676;139.586;2023-06-04T07:42:33;100150.73;;;29.57;32.81
62847;BME280;49477;35.676;139.586;2023-06-04T07:45:03;100148.61;;;29.95;32.73
62847;BME280;49477;35.676;139.586;2023-06-04T07:47:32;100147.74;;;29.75;33.01
62847;BME280;49477;35.676;139.586;2023-06-04T07:50:02;100149.88;;;29.81;32.87
62847;BME280;49477;35.676;139.586;2023-06-04T07:52:32;100155.93;;;29.61;33.05
62847;BME280;49477;35.676;139.586;2023-06-04T07:55:01;100158.78;;;29.75;33.09
62847;BME280;49477;35.676;139.586;2023-06-04T07:57:31;100159.46;;;29.35;33.34
62847;BME280;49477;35.676;139.586;2023-06-04T08:00:00;100160.12;;;30.34;33.13
62847;BME280;49477;35.676;139.586;2023-06-04T08:02:30;100149.89;;;29.50;33.60
62847;BME280;49477;35.676;139.586;2023-06-04T08:05:00;100147.18;;;29.31;33.77
62847;BME280;49477;35.676;139.586;2023-06-04T08:07:29;100145.61;;;29.09;33.59
62847;BME280;49477;35.676;139.586;2023-06-04T08:09:58;100144.13;;;29.38;33.94
62847;BME280;49477;35.676;139.586;2023-06-04T08:12:28;100144.83;;;29.10;33.86
62847;BME280;49477;35.676;139.586;2023-06-04T08:14:57;100143.74;;;29.15;33.99
62847;BME280;49477;35.676;139.586;2023-06-04T08:17:27;100142.95;;;29.09;34.14
62847;BME280;49477;35.676;139.586;2023-06-04T08:19:57;100147.29;;;29.71;33.99
62847;BME280;49477;35.676;139.586;2023-06-04T08:22:26;100141.90;;;29.25;34.12
62847;BME280;49477;35.676;139.586;2023-06-04T08:24:55;100143.96;;;29.54;34.19
62847;BME280;49477;35.676;139.586;2023-06-04T08:27:25;100142.44;;;29.13;34.49
62847;BME280;49477;35.676;139.586;2023-06-04T08:29:54;100141.14;;;29.45;34.44
62847;BME280;49477;35.676;139.586;2023-06-04T08:32:24;100142.69;;;29.31;34.42
62847;BME280;49477;35.676;139.586;2023-06-04T08:34:53;100139.86;;;29.37;34.75
62847;BME280;49477;35.676;139.586;2023-06-04T08:37:22;100144.90;;;29.09;34.65
62847;BME280;49477;35.676;139.586;2023-06-04T08:39:52;100148.34;;;29.50;34.83
62847;BME280;49477;35.676;139.586;2023-06-04T08:42:26;100150.71;;;29.43;34.69
62847;BME280;49477;35.676;139.586;2023-06-04T08:44:58;100150.54;;;29.05;34.94
62847;BME280;49477;35.676;139.586;2023-06-04T08:47:28;100150.68;;;29.32;34.71
62847;BME280;49477;35.676;139.586;2023-06-04T08:50:00;100150.82;;;29.70;34.85
62847;BME280;49477;35.676;139.586;2023-06-04T08:52:30;100153.57;;;29.44;35.13
62847;BME280;49477;35.676;139.586;2023-06-04T08:55:00;100150.32;;;29.47;35.21
62847;BME280;49477;35.676;139.586;2023-06-04T08:57:32;100150.99;;;29.29;35.46
62847;BME280;49477;35.676;139.586;2023-06-04T09:00:01;100145.47;;;29.26;35.32
62847;BME280;49477;35.676;139.586;2023-06-04T09:02:32;100141.20;;;29.29;35.27
62847;BME280;49477;35.676;139.586;2023-06-04T09:05:04;100145.57;;;29.24;35.46
62847;BME280;49477;35.676;139.586;2023-06-04T09:07:36;100146.47;;;28.75;35.65
62847;BME280;49477;35.676;139.586;2023-06-04T09:10:08;100146.58;;;29.15;35.52
62847;BME280;49477;35.676;139.586;2023-06-04T09:12:42;100145.88;;;29.04;35.65
62847;BME280;49477;35.676;139.586;2023-06-04T09:15:12;100145.83;;;29.25;35.84
62847;BME280;49477;35.676;139.586;2023-06-04T09:17:41;100147.39;;;29.04;35.93
62847;BME280;49477;35.676;139.586;2023-06-04T09:20:20;100147.40;;;28.95;35.87
62847;BME280;49477;35.676;139.586;2023-06-04T09:22:50;100142.04;;;28.96;36.05
62847;BME280;49477;35.676;139.586;2023-06-04T09:25:22;100144.91;;;28.90;36.06
62847;BME280;49477;35.676;139.586;2023-06-04T09:27:53;100144.25;;;28.66;36.06
62847;BME280;49477;35.676;139.586;2023-06-04T09:30:23;100143.36;;;28.52;36.10
62847;BME280;49477;35.676;139.586;2023-06-04T09:32:53;100150.24;;;29.01;36.02
62847;BME280;49477;35.676;139.586;2023-06-04T09:35:22;100151.34;;;28.31;36.40
62847;BME280;49477;35.676;139.586;2023-06-04T09:37:55;100153.04;;;28.82;36.40
62847;BME280;49477;35.676;139.586;2023-06-04T09:40:34;100148.76;;;28.57;36.65
62847;BME280;49477;35.676;139.586;2023-06-04T09:43:03;100156.04;;;28.63;36.68
62847;BME280;49477;35.676;139.586;2023-06-04T09:45:33;100162.85;;;28.65;36.75
62847;BME280;49477;35.676;139.586;2023-06-04T09:48:03;100156.33;;;28.68;36.85
62847;BME280;49477;35.676;139.586;2023-06-04T09:50:33;100161.05;;;28.46;36.95
62847;BME280;49477;35.676;139.586;2023-06-04T09:53:12;100168.89;;;28.63;36.92
62847;BME280;49477;35.676;139.586;2023-06-04T09:55:41;100170.04;;;28.36;37.07
62847;BME280;49477;35.676;139.586;2023-06-04T09:58:11;100164.43;;;28.55;37.30
62847;BME280;49477;35.676;139.586;2023-06-04T10:00:41;100159.57;;;28.55;37.08
62847;BME280;49477;35.676;139.586;2023-06-04T10:03:16;100161.51;;;28.38;37.34
62847;BME280;49477;35.676;139.586;2023-06-04T10:05:46;100164.99;;;28.35;37.31
62847;BME280;49477;35.676;139.586;2023-06-04T10:08:16;100167.39;;;28.23;37.56
62847;BME280;49477;35.676;139.586;2023-06-04T10:10:47;100174.39;;;28.70;37.41
62847;BME280;49477;35.676;139.586;2023-06-04T10:13:19;100178.97;;;28.33;37.44
62847;BME280;49477;35.676;139.586;2023-06-04T10:15:48;100177.40;;;28.49;37.36
62847;BME280;49477;35.676;139.586;2023-06-04T10:18:18;100165.80;;;28.27;37.60
62847;BME280;49477;35.676;139.586;2023-06-04T10:20:47;100158.07;;;28.39;37.56
62847;BME280;49477;35.676;139.586;2023-06-04T10:23:18;100166.71;;;28.45;37.60
62847;BME280;49477;35.676;139.586;2023-06-04T10:25:50;100174.23;;;28.18;37.71
62847;BME280;49477;35.676;139.586;2023-06-04T10:28:20;100182.51;;;28.34;37.67
62847;BME280;49477;35.676;139.586;2023-06-04T10:30:50;100188.00;;;28.31;37.69
62847;BME280;49477;35.676;139.586;2023-06-04T10:33:20;100196.41;;;28.34;37.68
62847;BME280;49477;35.676;139.586;2023-06-04T10:35:49;100194.91;;;28.30;37.89
62847;BME280;49477;35.676;139.586;2023-06-04T10:38:19;100194.51;;;28.21;37.87
62847;BME280;49477;35.676;139.586;2023-06-04T10:40:48;100196.12;;;28.18;37.98
62847;BME280;49477;35.676;139.586;2023-06-04T10:43:18;100196.13;;;27.95;38.50
62847;BME280;49477;35.676;139.586;2023-06-04T10:45:47;100199.34;;;27.96;38.17
62847;BME280;49477;35.676;139.586;2023-06-04T10:48:17;100196.72;;;27.63;38.37
62847;BME280;49477;35.676;139.586;2023-06-04T10:50:53;100193.45;;;27.63;38.67
62847;BME280;49477;35.676;139.586;2023-06-04T10:53:23;100190.03;;;27.70;38.52
62847;BME280;49477;35.676;139.586;2023-06-04T10:55:52;100190.92;;;27.46;38.89
62847;BME280;49477;35.676;139.586;2023-06-04T10:58:31;100195.77;;;27.16;39.07
62847;BME280;49477;35.676;139.586;2023-06-04T11:01:00;100198.32;;;28.08;38.55
62847;BME280;49477;35.676;139.586;2023-06-04T11:03:37;100205.37;;;27.39;39.13
62847;BME280;49477;35.676;139.586;2023-06-04T11:06:17;100213.61;;;27.48;39.46
62847;BME280;49477;35.676;139.586;2023-06-04T11:08:46;100218.91;;;27.35;39.43
62847;BME280;49477;35.676;139.586;2023-06-04T11:11:16;100217.62;;;27.32;39.49
62847;BME280;49477;35.676;139.586;2023-06-04T11:13:46;100215.71;;;27.57;39.81
62847;BME280;49477;35.676;139.586;2023-06-04T11:16:17;100222.03;;;27.13;40.17
62847;BME280;49477;35.676;139.586;2023-06-04T11:18:56;100225.06;;;27.49;39.99
62847;BME280;49477;35.676;139.586;2023-06-04T11:21:26;100217.00;;;27.59;39.26
62847;BME280;49477;35.676;139.586;2023-06-04T11:23:57;100223.63;;;27.49;39.98
62847;BME280;49477;35.676;139.586;2023-06-04T11:26:32;100229.89;;;27.34;39.75
62847;BME280;49477;35.676;139.586;2023-06-04T11:29:05;100237.08;;;27.32;40.65
62847;BME280;49477;35.676;139.586;2023-06-04T11:31:42;100244.36;;;26.74;40.97
62847;BME280;49477;35.676;139.586;2023-06-04T11:34:22;100241.68;;;27.23;40.96
62847;BME280;49477;35.676;139.586;2023-06-04T11:36:52;100246.63;;;27.40;40.63
62847;BME280;49477;35.676;139.586;2023-06-04T11:39:21;100258.38;;;26.65;41.12
62847;BME280;49477;35.676;139.586;2023-06-04T11:41:51;100257.59;;;27.11;40.73
62847;BME280;49477;35.676;139.586;2023-06-04T11:44:20;100256.66;;;26.96;40.98
62847;BME280;49477;35.676;139.586;2023-06-04T11:46:49;100249.02;;;27.12;41.01
62847;BME280;49477;35.676;139.586;2023-06-04T11:49:20;100249.04;;;26.80;41.46
62847;BME280;49477;35.676;139.586;2023-06-04T11:51:49;100245.97;;;26.95;41.57
62847;BME280;49477;35.676;139.586;2023-06-04T11:54:20;100248.39;;;26.64;41.55
62847;BME280;49477;35.676;139.586;2023-06-04T11:56:51;100259.71;;;26.50;41.70
62847;BME280;49477;35.676;139.586;2023-06-04T11:59:20;100258.99;;;27.29;40.98
62847;BME280;49477;35.676;139.586;2023-06-04T12:01:49;100263.61;;;26.60;41.69
62847;BME280;49477;35.676;139.586;2023-06-04T12:04:19;100271.91;;;26.53;41.76
62847;BME280;49477;35.676;139.586;2023-06-04T12:06:57;100272.16;;;26.46;41.93
62847;BME280;49477;35.676;139.586;2023-06-04T12:09:28;100271.24;;;26.74;41.89
62847;BME280;49477;35.676;139.586;2023-06-04T12:12:00;100275.23;;;26.65;42.02
62847;BME280;49477;35.676;139.586;2023-06-04T12:14:30;100271.43;;;26.56;42.12
62847;BME280;49477;35.676;139.586;2023-06-04T12:17:01;100274.57;;;26.54;42.19
62847;BME280;49477;35.676;139.586;2023-06-04T12:19:30;100283.91;;;26.45;42.33
62847;BME280;49477;35.676;139.586;2023-06-04T12:22:02;100287.40;;;26.26;42.60
62847;BME280;49477;35.676;139.586;2023-06-04T12:24:32;100284.62;;;26.56;42.32
62847;BME280;49477;35.676;139.586;2023-06-04T12:27:04;100280.77;;;26.72;42.27
62847;BME280;49477;35.676;139.586;2023-06-04T12:29:34;100287.30;;;26.31;42.65
62847;BME280;49477;35.676;139.586;2023-06-04T12:32:05;100295.55;;;26.49;42.75
62847;BME280;49477;35.676;139.586;2023-06-04T12:34:35;100297.21;;;26.46;42.78
62847;BME280;49477;35.676;139.586;2023-06-04T12:37:05;100292.00;;;26.64;42.51
62847;BME280;49477;35.676;139.586;2023-06-04T12:39:35;100293.27;;;26.37;42.58
62847;BME280;49477;35.676;139.586;2023-06-04T12:42:06;100300.59;;;26.43;42.86
62847;BME280;49477;35.676;139.586;2023-06-04T12:44:37;100305.35;;;26.31;43.05